sensor_id;sensor_type;location;lat;lon;timestamp;pressure;altitude;pressure_sealevel;temperature;humidity
20930;BME280;21895;47.072;15.132;2023-02-12T00:01:21;98084.00;;;1.23;66.02
20930;BME280;21895;47.072;15.132;2023-02-12T00:03:48;98091.00;;;1.15;66.07
20930;BME280;21895;47.072;15.132;2023-02-12T00:06:15;98095.00;;;1.18;65.66
20930;BME280;21895;47.072;15.132;2023-02-12T00:08:42;98103.00;;;1.21;65.02
20930;BME280;21895;47.072;15.132;2023-02-12T00:11:15;98105.00;;;1.19;64.25
20930;BME280;21895;47.072;15.132;2023-02-12T00:13:43;98104.00;;;1.07;64.59
20930;BME280;21895;47.072;15.132;2023-02-12T00:16:16;98121.00;;;0.94;65.22
20930;BME280;21895;47.072;15.132;2023-02-12T00:18:44;98115.00;;;0.96;65.22
20930;BME280;21895;47.072;15.132;2023-02-12T00:21:11;98119.00;;;1.07;65.18
20930;BME280;21895;47.072;15.132;2023-02-12T00:23:39;98120.00;;;1.08;65.32
20930;BME280;21895;47.072;15.132;2023-02-12T00:26:18;98137.00;;;1.10;65.33
20930;BME280;21895;47.072;15.132;2023-02-12T00:28:45;98139.00;;;1.11;65.58
20930;BME280;21895;47.072;15.132;2023-02-12T00:31:19;98121.00;;;1.19;65.98
20930;BME280;21895;47.072;15.132;2023-02-12T00:33:46;98129.00;;;1.31;65.92
20930;BME280;21895;47.072;15.132;2023-02-12T00:36:22;98136.00;;;1.31;66.08
20930;BME280;21895;47.072;15.132;2023-02-12T00:38:52;98138.00;;;1.26;65.41
20930;BME280;21895;47.072;15.132;2023-02-12T00:41:20;98143.00;;;1.28;66.07
20930;BME280;21895;47.072;15.132;2023-02-12T00:43:48;98150.00;;;1.23;66.75
20930;BME280;21895;47.072;15.132;2023-02-12T00:46:15;98160.00;;;1.63;64.99
20930;BME280;21895;47.072;15.132;2023-02-12T00:48:42;98163.00;;;1.39;65.11
20930;BME280;21895;47.072;15.132;2023-02-12T00:51:08;98159.00;;;1.46;65.10
20930;BME280;21895;47.072;15.132;2023-02-12T00:53:36;98169.00;;;1.42;65.62
20930;BME280;21895;47.072;15.132;2023-02-12T00:56:03;98162.00;;;1.36;65.98
20930;BME280;21895;47.072;15.132;2023-02-12T00:58:29;98177.00;;;1.50;65.59
20930;BME280;21895;47.072;15.132;2023-02-12T01:00:56;98166.00;;;1.42;65.09
20930;BME280;21895;47.072;15.132;2023-02-12T01:03:23;98159.00;;;1.57;64.89
20930;BME280;21895;47.072;15.132;2023-02-12T01:05:50;98150.00;;;1.47;64.46
20930;BME280;21895;47.072;15.132;2023-02-12T01:08:17;98167.00;;;1.62;64.31
20930;BME280;21895;47.072;15.132;2023-02-12T01:10:44;98157.00;;;1.48;64.68
20930;BME280;21895;47.072;15.132;2023-02-12T01:13:13;98148.00;;;1.66;64.05
20930;BME280;21895;47.072;15.132;2023-02-12T01:15:41;98160.00;;;1.56;64.29
20930;BME280;21895;47.072;15.132;2023-02-12T01:18:07;98169.00;;;1.68;63.99
20930;BME280;21895;47.072;15.132;2023-02-12T01:20:34;98176.00;;;1.76;63.66
20930;BME280;21895;47.072;15.132;2023-02-12T01:23:00;98168.00;;;1.76;64.14
20930;BME280;21895;47.072;15.132;2023-02-12T01:25:27;98174.00;;;1.81;64.57
20930;BME280;21895;47.072;15.132;2023-02-12T01:27:54;98165.00;;;1.67;65.01
20930;BME280;21895;47.072;15.132;2023-02-12T01:30:20;98168.00;;;1.61;65.21
20930;BME280;21895;47.072;15.132;2023-02-12T01:32:49;98161.00;;;1.68;65.13
20930;BME280;21895;47.072;15.132;2023-02-12T01:35:15;98163.00;;;1.77;64.83
20930;BME280;21895;47.072;15.132;2023-02-12T01:37:42;98141.00;;;1.78;65.15
20930;BME280;21895;47.072;15.132;2023-02-12T01:40:11;98154.00;;;1.68;65.70
20930;BME280;21895;47.072;15.132;2023-02-12T01:42:39;98154.00;;;1.64;65.94
20930;BME280;21895;47.072;15.132;2023-02-12T01:46:28;98158.00;;;1.60;66.43
20930;BME280;21895;47.072;15.132;2023-02-12T01:48:54;98150.00;;;1.76;65.63
20930;BME280;21895;47.072;15.132;2023-02-12T01:51:23;98164.00;;;1.77;65.68
20930;BME280;21895;47.072;15.132;2023-02-12T01:53:54;98158.00;;;1.79;65.88
20930;BME280;21895;47.072;15.132;2023-02-12T01:56:24;98164.00;;;1.80;65.49
20930;BME280;21895;47.072;15.132;2023-02-12T01:58:52;98148.00;;;1.80;64.77
20930;BME280;21895;47.072;15.132;2023-02-12T02:01:29;98147.00;;;1.71;65.20
20930;BME280;21895;47.072;15.132;2023-02-12T02:04:08;98144.00;;;1.88;65.08
20930;BME280;21895;47.072;15.132;2023-02-12T02:08:33;98136.00;;;1.90;65.18
20930;BME280;21895;47.072;15.132;2023-02-12T02:11:00;98125.00;;;1.83;65.43
20930;BME280;21895;47.072;15.132;2023-02-12T02:13:26;98128.00;;;2.00;64.10
20930;BME280;21895;47.072;15.132;2023-02-12T02:16:24;98124.00;;;1.76;64.73
20930;BME280;21895;47.072;15.132;2023-02-12T02:30:31;98159.00;;;2.02;65.19
20930;BME280;21895;47.072;15.132;2023-02-12T02:34:08;98135.00;;;1.93;65.73
20930;BME280;21895;47.072;15.132;2023-02-12T02:36:55;98146.00;;;1.99;65.96
20930;BME280;21895;47.072;15.132;2023-02-12T02:41:07;98148.00;;;2.09;65.23
20930;BME280;21895;47.072;15.132;2023-02-12T02:43:45;98154.00;;;2.01;65.01
20930;BME280;21895;47.072;15.132;2023-02-12T02:46:48;98167.00;;;2.12;64.18
20930;BME280;21895;47.072;15.132;2023-02-12T02:49:29;98168.00;;;1.93;64.39
20930;BME280;21895;47.072;15.132;2023-02-12T02:52:08;98170.00;;;2.06;64.90
20930;BME280;21895;47.072;15.132;2023-02-12T02:54:46;98165.00;;;2.03;65.38
20930;BME280;21895;47.072;15.132;2023-02-12T02:57:40;98173.00;;;1.96;65.81
20930;BME280;21895;47.072;15.132;2023-02-12T03:01:54;98178.00;;;1.90;66.46
20930;BME280;21895;47.072;15.132;2023-02-12T03:04:30;98172.00;;;1.97;65.51
20930;BME280;21895;47.072;15.132;2023-02-12T03:07:16;98203.00;;;1.89;65.98
20930;BME280;21895;47.072;15.132;2023-02-12T03:10:53;98191.00;;;1.90;66.00
20930;BME280;21895;47.072;15.132;2023-02-12T03:13:34;98190.00;;;1.83;66.36
20930;BME280;21895;47.072;15.132;2023-02-12T03:16:12;98194.00;;;1.85;65.94
20930;BME280;21895;47.072;15.132;2023-02-12T03:18:54;98193.00;;;1.88;66.14
20930;BME280;21895;47.072;15.132;2023-02-12T03:21:36;98194.00;;;1.88;66.21
20930;BME280;21895;47.072;15.132;2023-02-12T03:24:35;98191.00;;;1.96;66.16
20930;BME280;21895;47.072;15.132;2023-02-12T03:27:13;98195.00;;;2.07;66.00
20930;BME280;21895;47.072;15.132;2023-02-12T03:29:41;98197.00;;;2.06;66.16
20930;BME280;21895;47.072;15.132;2023-02-12T03:33:59;98206.00;;;2.10;65.49
20930;BME280;21895;47.072;15.132;2023-02-12T03:37:35;98204.00;;;2.09;65.69
20930;BME280;21895;47.072;15.132;2023-02-12T03:40:20;98189.00;;;2.09;65.48
20930;BME280;21895;47.072;15.132;2023-02-12T03:43:26;98187.00;;;2.18;65.84
20930;BME280;21895;47.072;15.132;2023-02-12T03:46:18;98181.00;;;2.14;65.89
20930;BME280;21895;47.072;15.132;2023-02-12T03:49:20;98188.00;;;1.88;66.88
20930;BME280;21895;47.072;15.132;2023-02-12T03:51:47;98189.00;;;1.87;66.62
20930;BME280;21895;47.072;15.132;2023-02-12T03:54:17;98187.00;;;1.78;67.39
20930;BME280;21895;47.072;15.132;2023-02-12T03:57:03;98188.00;;;1.77;67.64
20930;BME280;21895;47.072;15.132;2023-02-12T03:59:34;98201.00;;;1.90;67.36
20930;BME280;21895;47.072;15.132;2023-02-12T04:02:02;98208.00;;;1.82;67.47
20930;BME280;21895;47.072;15.132;2023-02-12T04:04:29;98196.00;;;1.84;67.13
20930;BME280;21895;47.072;15.132;2023-02-12T04:06:57;98205.00;;;1.77;67.36
20930;BME280;21895;47.072;15.132;2023-02-12T04:09:26;98199.00;;;1.67;67.56
20930;BME280;21895;47.072;15.132;2023-02-12T04:12:38;98212.00;;;1.70;67.72
20930;BME280;21895;47.072;15.132;2023-02-12T04:15:28;98222.00;;;1.75;67.16
20930;BME280;21895;47.072;15.132;2023-02-12T04:18:23;98217.00;;;1.65;67.36
20930;BME280;21895;47.072;15.132;2023-02-12T04:21:12;98223.00;;;1.73;67.05
20930;BME280;21895;47.072;15.132;2023-02-12T04:25:35;98228.00;;;1.67;66.56
20930;BME280;21895;47.072;15.132;2023-02-12T04:29:51;98219.00;;;1.60;67.04
20930;BME280;21895;47.072;15.132;2023-02-12T04:35:35;98235.00;;;1.57;67.18
20930;BME280;21895;47.072;15.132;2023-02-12T04:38:23;98219.00;;;1.45;67.30
20930;BME280;21895;47.072;15.132;2023-02-12T04:40:52;98213.00;;;1.40;67.49
20930;BME280;21895;47.072;15.132;2023-02-12T04:43:31;98208.00;;;1.37;67.49
20930;BME280;21895;47.072;15.132;2023-02-12T04:46:05;98226.00;;;1.29;67.82
20930;BME280;21895;47.072;15.132;2023-02-12T04:48:33;98228.00;;;1.17;68.27
20930;BME280;21895;47.072;15.132;2023-02-12T04:51:00;98222.00;;;1.15;67.91
20930;BME280;21895;47.072;15.132;2023-02-12T04:53:27;98240.00;;;1.19;67.62
20930;BME280;21895;47.072;15.132;2023-02-12T04:55:54;98244.00;;;1.13;67.81
20930;BME280;21895;47.072;15.132;2023-02-12T04:58:20;98254.00;;;1.11;68.10
20930;BME280;21895;47.072;15.132;2023-02-12T05:00:47;98245.00;;;1.08;68.06
20930;BME280;21895;47.072;15.132;2023-02-12T05:03:13;98253.00;;;1.00;68.18
20930;BME280;21895;47.072;15.132;2023-02-12T05:05:40;98250.00;;;1.02;68.19
20930;BME280;21895;47.072;15.132;2023-02-12T05:08:06;98252.00;;;1.14;67.88
20930;BME280;21895;47.072;15.132;2023-02-12T05:10:33;98269.00;;;1.02;67.60
20930;BME280;21895;47.072;15.132;2023-02-12T05:12:59;98262.00;;;0.98;67.56
20930;BME280;21895;47.072;15.132;2023-02-12T05:15:26;98276.00;;;0.89;67.77
20930;BME280;21895;47.072;15.132;2023-02-12T05:17:52;98270.00;;;0.65;68.53
20930;BME280;21895;47.072;15.132;2023-02-12T05:20:19;98272.00;;;0.48;69.06
20930;BME280;21895;47.072;15.132;2023-02-12T05:22:50;98260.00;;;0.58;68.87
20930;BME280;21895;47.072;15.132;2023-02-12T05:25:17;98275.00;;;0.20;68.79
20930;BME280;21895;47.072;15.132;2023-02-12T05:27:43;98273.00;;;0.31;68.61
20930;BME280;21895;47.072;15.132;2023-02-12T05:30:10;98288.00;;;0.08;68.84
20930;BME280;21895;47.072;15.132;2023-02-12T05:32:37;98288.00;;;0.07;69.21
20930;BME280;21895;47.072;15.132;2023-02-12T05:35:04;98301.00;;;0.22;69.18
20930;BME280;21895;47.072;15.132;2023-02-12T05:37:34;98306.00;;;0.17;69.33
20930;BME280;21895;47.072;15.132;2023-02-12T05:40:04;98296.00;;;0.14;69.33
20930;BME280;21895;47.072;15.132;2023-02-12T05:42:31;98299.00;;;0.18;69.61
20930;BME280;21895;47.072;15.132;2023-02-12T05:44:58;98308.00;;;0.21;69.28
20930;BME280;21895;47.072;15.132;2023-02-12T05:47:24;98310.00;;;0.26;70.26
20930;BME280;21895;47.072;15.132;2023-02-12T05:49:51;98318.00;;;0.60;68.93
20930;BME280;21895;47.072;15.132;2023-02-12T05:52:17;98315.00;;;0.45;69.46
20930;BME280;21895;47.072;15.132;2023-02-12T05:54:44;98322.00;;;0.46;69.63
20930;BME280;21895;47.072;15.132;2023-02-12T05:57:10;98328.00;;;0.58;69.16
20930;BME280;21895;47.072;15.132;2023-02-12T05:59:37;98318.00;;;0.60;69.54
20930;BME280;21895;47.072;15.132;2023-02-12T06:02:03;98324.00;;;0.54;69.27
20930;BME280;21895;47.072;15.132;2023-02-12T06:04:30;98326.00;;;0.53;69.29
20930;BME280;21895;47.072;15.132;2023-02-12T06:06:56;98339.00;;;0.63;68.28
20930;BME280;21895;47.072;15.132;2023-02-12T06:09:23;98334.00;;;0.55;68.42
20930;BME280;21895;47.072;15.132;2023-02-12T06:11:50;98336.00;;;0.45;68.32
20930;BME280;21895;47.072;15.132;2023-02-12T06:14:19;98341.00;;;0.35;68.36
20930;BME280;21895;47.072;15.132;2023-02-12T06:16:48;98338.00;;;0.36;68.17
20930;BME280;21895;47.072;15.132;2023-02-12T06:19:16;98358.00;;;0.28;68.62
20930;BME280;21895;47.072;15.132;2023-02-12T06:21:43;98356.00;;;0.31;68.92
20930;BME280;21895;47.072;15.132;2023-02-12T06:24:14;98355.00;;;0.52;68.92
20930;BME280;21895;47.072;15.132;2023-02-12T06:26:41;98364.00;;;0.78;68.32
20930;BME280;21895;47.072;15.132;2023-02-12T06:29:08;98358.00;;;0.87;68.36
20930;BME280;21895;47.072;15.132;2023-02-12T06:31:36;98365.00;;;0.94;67.80
20930;BME280;21895;47.072;15.132;2023-02-12T06:34:07;98371.00;;;0.89;68.14
20930;BME280;21895;47.072;15.132;2023-02-12T06:36:37;98377.00;;;0.97;68.31
20930;BME280;21895;47.072;15.132;2023-02-12T06:39:05;98376.00;;;1.03;68.44
20930;BME280;21895;47.072;15.132;2023-02-12T06:41:32;98378.00;;;1.25;67.80
20930;BME280;21895;47.072;15.132;2023-02-12T06:43:59;98387.00;;;1.31;67.72
20930;BME280;21895;47.072;15.132;2023-02-12T06:46:25;98386.00;;;1.34;67.96
20930;BME280;21895;47.072;15.132;2023-02-12T06:48:55;98388.00;;;1.46;67.47
20930;BME280;21895;47.072;15.132;2023-02-12T06:51:22;98404.00;;;1.27;67.68
20930;BME280;21895;47.072;15.132;2023-02-12T06:53:52;98414.00;;;1.30;67.82
20930;BME280;21895;47.072;15.132;2023-02-12T06:56:20;98411.00;;;1.52;67.53
20930;BME280;21895;47.072;15.132;2023-02-12T06:58:55;98418.00;;;1.55;67.27
20930;BME280;21895;47.072;15.132;2023-02-12T07:01:28;98418.00;;;1.69;66.92
20930;BME280;21895;47.072;15.132;2023-02-12T07:03:58;98418.00;;;2.08;65.57
20930;BME280;21895;47.072;15.132;2023-02-12T07:06:26;98425.00;;;1.93;66.19
20930;BME280;21895;47.072;15.132;2023-02-12T07:08:54;98431.00;;;1.77;66.63
20930;BME280;21895;47.072;15.132;2023-02-12T07:11:30;98428.00;;;1.91;66.72
20930;BME280;21895;47.072;15.132;2023-02-12T07:13:57;98435.00;;;2.04;66.37
20930;BME280;21895;47.072;15.132;2023-02-12T07:16:26;98445.00;;;2.21;66.05
20930;BME280;21895;47.072;15.132;2023-02-12T07:18:53;98453.00;;;2.20;66.24
20930;BME280;21895;47.072;15.132;2023-02-12T07:21:20;98448.00;;;2.26;66.12
20930;BME280;21895;47.072;15.132;2023-02-12T07:23:49;98446.00;;;2.33;66.02
20930;BME280;21895;47.072;15.132;2023-02-12T07:26:19;98454.00;;;2.47;65.18
20930;BME280;21895;47.072;15.132;2023-02-12T07:28:47;98459.00;;;2.47;64.99
20930;BME280;21895;47.072;15.132;2023-02-12T07:31:21;98450.00;;;2.55;65.04
20930;BME280;21895;47.072;15.132;2023-02-12T07:33:53;98451.00;;;2.73;64.81
20930;BME280;21895;47.072;15.132;2023-02-12T07:36:21;98471.00;;;2.68;64.57
20930;BME280;21895;47.072;15.132;2023-02-12T07:38:47;98462.00;;;2.88;64.04
20930;BME280;21895;47.072;15.132;2023-02-12T07:41:22;98460.00;;;2.87;64.47
20930;BME280;21895;47.072;15.132;2023-02-12T07:43:54;98462.00;;;2.90;64.34
20930;BME280;21895;47.072;15.132;2023-02-12T07:46:28;98461.00;;;3.00;64.14
20930;BME280;21895;47.072;15.132;2023-02-12T07:48:57;98467.00;;;3.28;63.70
20930;BME280;21895;47.072;15.132;2023-02-12T07:51:26;98465.00;;;3.48;63.26
20930;BME280;21895;47.072;15.132;2023-02-12T07:53:53;98472.00;;;3.59;63.06
20930;BME280;21895;47.072;15.132;2023-02-12T07:56:26;98472.00;;;3.73;62.36
20930;BME280;21895;47.072;15.132;2023-02-12T07:58:57;98469.00;;;3.78;61.92
20930;BME280;21895;47.072;15.132;2023-02-12T08:01:32;98484.00;;;3.91;61.84
20930;BME280;21895;47.072;15.132;2023-02-12T08:04:20;98486.00;;;4.01;61.22
20930;BME280;21895;47.072;15.132;2023-02-12T08:06:51;98479.00;;;4.02;60.82
20930;BME280;21895;47.072;15.132;2023-02-12T08:09:24;98480.00;;;4.13;60.64
20930;BME280;21895;47.072;15.132;2023-02-12T08:11:50;98485.00;;;4.10;60.44
20930;BME280;21895;47.072;15.132;2023-02-12T08:14:20;98484.00;;;4.33;59.66
20930;BME280;21895;47.072;15.132;2023-02-12T08:16:48;98488.00;;;4.19;59.29
20930;BME280;21895;47.072;15.132;2023-02-12T08:19:16;98489.00;;;4.44;59.57
20930;BME280;21895;47.072;15.132;2023-02-12T08:21:55;98479.00;;;4.33;59.87
20930;BME280;21895;47.072;15.132;2023-02-12T08:24:23;98481.00;;;4.50;59.20
20930;BME280;21895;47.072;15.132;2023-02-12T08:26:50;98488.00;;;4.61;59.10
20930;BME280;21895;47.072;15.132;2023-02-12T08:29:25;98478.00;;;4.61;59.36
20930;BME280;21895;47.072;15.132;2023-02-12T08:31:59;98480.00;;;4.87;59.12
20930;BME280;21895;47.072;15.132;2023-02-12T08:34:30;98476.00;;;4.89;59.21
20930;BME280;21895;47.072;15.132;2023-02-12T08:36:58;98478.00;;;4.97;59.05
20930;BME280;21895;47.072;15.132;2023-02-12T08:39:27;98480.00;;;5.29;58.17
20930;BME280;21895;47.072;15.132;2023-02-12T08:41:56;98478.00;;;5.49;58.02
20930;BME280;21895;47.072;15.132;2023-02-12T08:44:23;98482.00;;;5.58;57.59
20930;BME280;21895;47.072;15.132;2023-02-12T08:46:52;98476.00;;;5.79;57.12
20930;BME280;21895;47.072;15.132;2023-02-12T08:49:24;98476.00;;;6.05;56.31
20930;BME280;21895;47.072;15.132;2023-02-12T08:51:54;98474.00;;;6.13;55.47
20930;BME280;21895;47.072;15.132;2023-02-12T08:54:24;98472.00;;;6.30;55.26
20930;BME280;21895;47.072;15.132;2023-02-12T08:56:57;98464.00;;;6.63;55.00
20930;BME280;21895;47.072;15.132;2023-02-12T08:59:23;98464.00;;;6.97;53.71
20930;BME280;21895;47.072;15.132;2023-02-12T09:01:51;98465.00;;;7.17;51.77
20930;BME280;21895;47.072;15.132;2023-02-12T09:04:22;98471.00;;;7.30;50.71
20930;BME280;21895;47.072;15.132;2023-02-12T09:06:49;98473.00;;;7.62;49.75
20930;BME280;21895;47.072;15.132;2023-02-12T09:09:16;98466.00;;;7.81;49.09
20930;BME280;21895;47.072;15.132;2023-02-12T09:11:44;98467.00;;;8.10;47.31
20930;BME280;21895;47.072;15.132;2023-02-12T09:14:14;98460.00;;;8.28;46.59
20930;BME280;21895;47.072;15.132;2023-02-12T09:16:42;98464.00;;;8.49;46.53
20930;BME280;21895;47.072;15.132;2023-02-12T09:19:11;98461.00;;;8.50;45.86
20930;BME280;21895;47.072;15.132;2023-02-12T09:21:39;98464.00;;;8.73;45.22
20930;BME280;21895;47.072;15.132;2023-02-12T09:24:05;98466.00;;;8.88;45.04
20930;BME280;21895;47.072;15.132;2023-02-12T09:26:32;98470.00;;;9.06;44.55
20930;BME280;21895;47.072;15.132;2023-02-12T09:29:02;98479.00;;;9.13;45.01
20930;BME280;21895;47.072;15.132;2023-02-12T09:31:31;98480.00;;;9.27;44.81
20930;BME280;21895;47.072;15.132;2023-02-12T09:34:04;98468.00;;;9.61;43.28
20930;BME280;21895;47.072;15.132;2023-02-12T09:36:32;98474.00;;;9.64;43.56
20930;BME280;21895;47.072;15.132;2023-02-12T09:38:59;98482.00;;;9.98;42.78
20930;BME280;21895;47.072;15.132;2023-02-12T09:53:30;98475.00;;;10.95;40.37
20930;BME280;21895;47.072;15.132;2023-02-12T09:55:58;98480.00;;;10.60;40.86
20930;BME280;21895;47.072;15.132;2023-02-12T09:58:48;98485.00;;;10.60;41.23
20930;BME280;21895;47.072;15.132;2023-02-12T10:01:21;98479.00;;;10.32;41.53
20930;BME280;21895;47.072;15.132;2023-02-12T10:03:50;98483.00;;;10.29;41.67
20930;BME280;21895;47.072;15.132;2023-02-12T10:06:28;98483.00;;;10.45;41.67
20930;BME280;21895;47.072;15.132;2023-02-12T10:15:11;98478.00;;;10.73;42.09
20930;BME280;21895;47.072;15.132;2023-02-12T10:19:31;98477.00;;;11.36;41.27
20930;BME280;21895;47.072;15.132;2023-02-12T10:22:39;98486.00;;;11.38;40.55
20930;BME280;21895;47.072;15.132;2023-02-12T10:27:17;98482.00;;;11.84;40.24
20930;BME280;21895;47.072;15.132;2023-02-12T10:29:48;98480.00;;;12.34;39.64
20930;BME280;21895;47.072;15.132;2023-02-12T10:32:29;98476.00;;;12.52;39.80
20930;BME280;21895;47.072;15.132;2023-02-12T10:34:59;98475.00;;;12.81;39.33
20930;BME280;21895;47.072;15.132;2023-02-12T10:37:54;98479.00;;;12.81;39.60
20930;BME280;21895;47.072;15.132;2023-02-12T10:40:27;98487.00;;;12.95;39.94
20930;BME280;21895;47.072;15.132;2023-02-12T10:42:56;98475.00;;;13.15;39.70
20930;BME280;21895;47.072;15.132;2023-02-12T10:45:36;98474.00;;;13.31;39.38
20930;BME280;21895;47.072;15.132;2023-02-12T10:48:20;98478.00;;;13.46;38.85
20930;BME280;21895;47.072;15.132;2023-02-12T10:52:40;98472.00;;;13.56;38.71
20930;BME280;21895;47.072;15.132;2023-02-12T10:55:29;98474.00;;;13.72;38.47
20930;BME280;21895;47.072;15.132;2023-02-12T10:57:58;98465.00;;;13.18;39.23
20930;BME280;21895;47.072;15.132;2023-02-12T11:00:37;98474.00;;;12.74;39.97
20930;BME280;21895;47.072;15.132;2023-02-12T11:03:30;98472.00;;;12.22;40.94
20930;BME280;21895;47.072;15.132;2023-02-12T11:06:16;98469.00;;;12.19;41.32
20930;BME280;21895;47.072;15.132;2023-02-12T11:08:43;98462.00;;;12.21;41.09
20930;BME280;21895;47.072;15.132;2023-02-12T11:11:15;98466.00;;;12.20;41.32
20930;BME280;21895;47.072;15.132;2023-02-12T11:13:57;98471.00;;;12.26;41.61
20930;BME280;21895;47.072;15.132;2023-02-12T11:16:39;98463.00;;;12.78;40.70
20930;BME280;21895;47.072;15.132;2023-02-12T11:19:28;98459.00;;;12.55;40.72
20930;BME280;21895;47.072;15.132;2023-02-12T11:22:09;98459.00;;;12.64;40.48
20930;BME280;21895;47.072;15.132;2023-02-12T11:24:39;98458.00;;;12.43;40.83
20930;BME280;21895;47.072;15.132;2023-02-12T11:29:44;98454.00;;;12.02;41.56
20930;BME280;21895;47.072;15.132;2023-02-12T11:32:18;98445.00;;;12.43;41.24
20930;BME280;21895;47.072;15.132;2023-02-12T11:35:24;98440.00;;;12.55;41.14
20930;BME280;21895;47.072;15.132;2023-02-12T11:37:56;98442.00;;;12.60;40.78
20930;BME280;21895;47.072;15.132;2023-02-12T11:40:32;98446.00;;;12.75;40.40
20930;BME280;21895;47.072;15.132;2023-02-12T11:43:07;98443.00;;;12.72;40.75
20930;BME280;21895;47.072;15.132;2023-02-12T11:45:59;98445.00;;;12.96;40.40
20930;BME280;21895;47.072;15.132;2023-02-12T11:48:45;98432.00;;;13.38;39.43
20930;BME280;21895;47.072;15.132;2023-02-12T11:51:21;98438.00;;;13.78;38.54
20930;BME280;21895;47.072;15.132;2023-02-12T11:53:53;98439.00;;;13.82;38.72
20930;BME280;21895;47.072;15.132;2023-02-12T11:56:21;98433.00;;;13.80;38.52
20930;BME280;21895;47.072;15.132;2023-02-12T11:58:50;98428.00;;;13.97;38.70
20930;BME280;21895;47.072;15.132;2023-02-12T12:01:36;98426.00;;;13.87;39.06
20930;BME280;21895;47.072;15.132;2023-02-12T12:04:12;98429.00;;;13.82;39.07
20930;BME280;21895;47.072;15.132;2023-02-12T12:06:50;98420.00;;;14.00;38.77
20930;BME280;21895;47.072;15.132;2023-02-12T12:09:47;98420.00;;;13.79;38.80
20930;BME280;21895;47.072;15.132;2023-02-12T12:12:35;98414.00;;;13.70;39.27
20930;BME280;21895;47.072;15.132;2023-02-12T12:15:22;98415.00;;;13.62;38.38
20930;BME280;21895;47.072;15.132;2023-02-12T12:19:41;98406.00;;;13.53;38.89
20930;BME280;21895;47.072;15.132;2023-02-12T12:23:10;98406.00;;;13.68;38.05
20930;BME280;21895;47.072;15.132;2023-02-12T12:26:00;98407.00;;;13.72;37.71
20930;BME280;21895;47.072;15.132;2023-02-12T12:28:47;98406.00;;;13.82;37.16
20930;BME280;21895;47.072;15.132;2023-02-12T12:32:00;98397.00;;;14.07;36.52
20930;BME280;21895;47.072;15.132;2023-02-12T12:34:28;98386.00;;;13.99;36.52
20930;BME280;21895;47.072;15.132;2023-02-12T12:37:53;98386.00;;;14.25;35.83
20930;BME280;21895;47.072;15.132;2023-02-12T12:41:14;98383.00;;;14.15;36.07
20930;BME280;21895;47.072;15.132;2023-02-12T12:49:56;98374.00;;;13.92;35.18
20930;BME280;21895;47.072;15.132;2023-02-12T12:53:11;98373.00;;;13.11;36.59
20930;BME280;21895;47.072;15.132;2023-02-12T12:56:47;98373.00;;;13.21;36.58
20930;BME280;21895;47.072;15.132;2023-02-12T13:01:31;98363.00;;;13.25;36.61
20930;BME280;21895;47.072;15.132;2023-02-12T13:07:43;98363.00;;;13.28;36.30
20930;BME280;21895;47.072;15.132;2023-02-12T13:10:50;98358.00;;;13.27;36.65
20930;BME280;21895;47.072;15.132;2023-02-12T13:14:09;98364.00;;;13.27;36.67
20930;BME280;21895;47.072;15.132;2023-02-12T13:16:46;98359.00;;;13.36;36.75
20930;BME280;21895;47.072;15.132;2023-02-12T13:20:51;98360.00;;;13.28;36.83
20930;BME280;21895;47.072;15.132;2023-02-12T13:24:11;98362.00;;;13.40;36.17
20930;BME280;21895;47.072;15.132;2023-02-12T13:26:55;98364.00;;;13.11;37.13
20930;BME280;21895;47.072;15.132;2023-02-12T13:29:34;98359.00;;;12.94;37.50
20930;BME280;21895;47.072;15.132;2023-02-12T13:32:19;98359.00;;;12.93;37.55
20930;BME280;21895;47.072;15.132;2023-02-12T13:34:49;98356.00;;;12.96;37.36
20930;BME280;21895;47.072;15.132;2023-02-12T13:37:41;98358.00;;;12.72;37.28
20930;BME280;21895;47.072;15.132;2023-02-12T13:40:21;98369.00;;;12.73;37.22
20930;BME280;21895;47.072;15.132;2023-02-12T13:46:10;98361.00;;;12.46;37.39
20930;BME280;21895;47.072;15.132;2023-02-12T13:50:30;98356.00;;;12.35;38.23
20930;BME280;21895;47.072;15.132;2023-02-12T13:57:25;98359.00;;;12.38;38.30
20930;BME280;21895;47.072;15.132;2023-02-12T13:59:53;98352.00;;;12.53;37.92
20930;BME280;21895;47.072;15.132;2023-02-12T14:02:53;98349.00;;;12.67;37.64
20930;BME280;21895;47.072;15.132;2023-02-12T14:05:28;98361.00;;;12.80;37.40
20930;BME280;21895;47.072;15.132;2023-02-12T14:08:04;98357.00;;;12.85;37.42
20930;BME280;21895;47.072;15.132;2023-02-12T14:10:41;98354.00;;;12.98;37.19
20930;BME280;21895;47.072;15.132;2023-02-12T14:16:17;98365.00;;;12.90;37.28
20930;BME280;21895;47.072;15.132;2023-02-12T14:18:44;98355.00;;;12.37;38.31
20930;BME280;21895;47.072;15.132;2023-02-12T14:21:56;98367.00;;;12.28;38.20
20930;BME280;21895;47.072;15.132;2023-02-12T14:24:52;98373.00;;;12.28;38.69
20930;BME280;21895;47.072;15.132;2023-02-12T14:27:52;98369.00;;;12.49;39.25
20930;BME280;21895;47.072;15.132;2023-02-12T14:30:41;98371.00;;;12.06;40.14
20930;BME280;21895;47.072;15.132;2023-02-12T14:33:22;98375.00;;;11.80;40.85
20930;BME280;21895;47.072;15.132;2023-02-12T14:36:46;98378.00;;;11.85;40.68
20930;BME280;21895;47.072;15.132;2023-02-12T14:39:47;98374.00;;;11.46;41.41
20930;BME280;21895;47.072;15.132;2023-02-12T14:42:42;98381.00;;;11.43;41.61
20930;BME280;21895;47.072;15.132;2023-02-12T14:45:34;98379.00;;;11.21;42.14
20930;BME280;21895;47.072;15.132;2023-02-12T14:48:03;98377.00;;;11.22;42.30
20930;BME280;21895;47.072;15.132;2023-02-12T14:50:44;98377.00;;;11.19;42.17
20930;BME280;21895;47.072;15.132;2023-02-12T14:53:36;98381.00;;;11.28;41.98
20930;BME280;21895;47.072;15.132;2023-02-12T14:56:05;98381.00;;;11.24;42.28
20930;BME280;21895;47.072;15.132;2023-02-12T14:58:35;98385.00;;;11.45;41.53
20930;BME280;21895;47.072;15.132;2023-02-12T15:01:04;98388.00;;;11.35;41.57
20930;BME280;21895;47.072;15.132;2023-02-12T15:03:48;98380.00;;;11.30;41.69